Time;durP1;ratioP1;P1;durP2;ratioP2;P2;SDS_P1;SDS_P2;PMS_P1;PMS_P2;Temp;Humidity;BMP_temperature;BMP_pressure;BME280_temperature;BME280_humidity;BME280_pressure;Samples;Min_cycle;Max_cycle;Signal;HPM_P1;HPM_P2
2022/10/29 00:00:10;;;;;;;18.48;5.95;;;13.20;99.90;;;;;;4985909;28;20074;-83
2022/10/29 00:02:36;;;;;;;39.13;8.48;;;13.30;99.90;;;;;;4982430;28;20034;-83
2022/10/29 00:05:02;;;;;;;31.52;6.95;;;13.30;99.90;;;;;;4986021;28;20038;-84
2022/10/29 00:07:27;;;;;;;29.77;6.75;;;13.20;99.90;;;;;;4962940;28;20059;-79
2022/10/29 00:09:53;;;;;;;40.38;8.68;;;13.20;99.90;;;;;;4986806;28;20042;-81
2022/10/29 00:12:19;;;;;;;28.30;6.30;;;13.20;99.90;;;;;;4978887;28;20046;-74
2022/10/29 00:14:44;;;;;;;25.70;5.95;;;13.20;99.90;;;;;;5008700;28;20054;-72
2022/10/29 00:17:10;;;;;;;53.17;8.23;;;13.20;99.90;;;;;;4990122;28;20049;-82
2022/10/29 00:19:35;;;;;;;30.35;7.63;;;13.20;99.90;;;;;;4986898;28;20047;-83
2022/10/29 00:22:01;;;;;;;33.33;8.05;;;13.10;99.90;;;;;;4981983;28;20057;-79
2022/10/29 00:24:27;;;;;;;38.88;7.80;;;13.10;99.90;;;;;;4981914;28;20062;-84
2022/10/29 00:26:52;;;;;;;24.50;5.85;;;13.10;99.90;;;;;;4977720;28;20356;-85
2022/10/29 00:29:18;;;;;;;39.00;8.23;;;13.10;99.90;;;;;;4957729;28;20052;-77
2022/10/29 00:31:43;;;;;;;38.38;8.05;;;13.00;99.90;;;;;;4981087;28;20065;-84
2022/10/29 00:34:09;;;;;;;44.83;10.20;;;12.90;99.90;;;;;;4986341;28;20039;-83
2022/10/29 00:36:35;;;;;;;32.30;8.95;;;13.00;99.90;;;;;;4984630;28;20046;-83
2022/10/29 00:39:00;;;;;;;35.88;7.97;;;13.00;99.90;;;;;;4985492;28;20045;-84
2022/10/29 00:41:28;;;;;;;41.85;8.98;;;13.00;99.90;;;;;;4983015;28;20049;-83
2022/10/29 00:44:19;;;;;;;28.23;6.78;;;13.00;99.90;;;;;;4964505;28;20053;-82
2022/10/29 00:47:19;;;;;;;37.88;10.30;;;13.00;99.90;;;;;;4981619;28;20050;-79
2022/10/29 00:49:53;;;;;;;22.83;6.95;;;13.00;99.90;;;;;;4938590;28;20051;-75
2022/10/29 00:52:21;;;;;;;30.50;8.57;;;13.00;99.90;;;;;;4988267;28;20075;-75
2022/10/29 00:54:47;;;;;;;33.67;8.85;;;12.90;99.90;;;;;;4995305;28;20054;-77
2022/10/29 00:57:32;;;;;;;25.38;8.52;;;12.90;99.90;;;;;;4992286;28;20038;-84
2022/10/29 00:59:58;;;;;;;33.80;10.45;;;12.90;99.90;;;;;;4990808;28;20115;-82
2022/10/29 01:02:24;;;;;;;39.85;10.43;;;12.90;99.90;;;;;;4991690;28;20045;-84
2022/10/29 01:04:51;;;;;;;41.58;9.48;;;12.80;99.90;;;;;;4991013;28;20405;-83
2022/10/29 01:07:19;;;;;;;38.25;9.23;;;12.90;99.90;;;;;;5002152;28;20048;-82
2022/10/29 01:09:44;;;;;;;33.80;8.98;;;12.80;99.90;;;;;;4988616;28;20026;-82
2022/10/29 01:12:56;;;;;;;35.50;8.30;;;12.80;99.90;;;;;;4987300;28;20066;-84
2022/10/29 01:15:37;;;;;;;37.83;9.25;;;12.80;99.90;;;;;;4952300;28;20050;-77
2022/10/29 01:18:27;;;;;;;49.10;13.48;;;12.80;99.90;;;;;;4975989;28;20051;-84
2022/10/29 01:20:56;;;;;;;;;;;12.80;99.90;;;;;;4972194;28;20077;-81
2022/10/29 01:23:46;;;;;;;37.28;8.05;;;12.80;99.90;;;;;;4984103;28;19922;-85
2022/10/29 01:26:21;;;;;;;;;;;12.90;99.90;;;;;;4972154;28;20046;-76
2022/10/29 01:29:30;;;;;;;58.42;9.05;;;12.90;99.90;;;;;;4986232;28;19949;-83
2022/10/29 01:32:22;;;;;;;51.15;10.98;;;12.90;99.90;;;;;;4940558;28;20513;-75
2022/10/29 01:35:13;;;;;;;64.10;10.75;;;12.90;99.90;;;;;;4971306;28;20070;-84
2022/10/29 01:37:54;;;;;;;55.25;9.32;;;13.00;99.90;;;;;;4971891;28;20117;-78
2022/10/29 01:40:54;;;;;;;37.75;10.45;;;13.00;99.90;;;;;;4988783;28;20448;-83
2022/10/29 01:43:27;;;;;;;38.22;10.02;;;12.70;99.90;;;;;;4978923;28;20050;-83
2022/10/29 01:46:03;;;;;;;47.97;10.60;;;12.70;99.90;;;;;;4988595;28;20066;-83
2022/10/29 01:48:34;;;;;;;65.60;11.20;;;12.80;99.90;;;;;;4989471;28;20044;-85
2022/10/29 01:51:06;;;;;;;67.80;10.98;;;12.80;99.90;;;;;;4988824;28;20493;-84
2022/10/29 01:53:35;;;;;;;104.50;12.52;;;12.80;99.90;;;;;;4985781;28;20073;-84
2022/10/29 01:56:00;;;;;;;111.03;12.85;;;12.90;99.90;;;;;;4989728;28;20054;-83
2022/10/29 01:58:26;;;;;;;79.90;9.35;;;12.90;99.90;;;;;;4986172;28;20046;-80
2022/10/29 02:01:05;;;;;;;121.03;11.82;;;12.90;99.90;;;;;;4986244;28;20129;-84
2022/10/29 02:03:42;;;;;;;158.32;15.10;;;12.70;99.90;;;;;;4987483;28;20054;-83
2022/10/29 02:06:50;;;;;;;147.48;12.23;;;12.70;99.90;;;;;;4976616;28;20050;-83
2022/10/29 02:09:25;;;;;;;114.30;11.32;;;12.60;99.90;;;;;;4967930;28;20096;-83
2022/10/29 02:12:02;;;;;;;139.60;12.55;;;12.60;99.90;;;;;;4983494;28;20057;-78
2022/10/29 02:14:39;;;;;;;142.70;12.57;;;12.60;99.90;;;;;;4986314;28;20077;-80
2022/10/29 02:17:06;;;;;;;173.73;12.77;;;12.50;99.90;;;;;;4975160;28;20441;-83
2022/10/29 02:19:34;;;;;;;164.00;14.50;;;12.50;99.90;;;;;;4981329;28;20323;-77
2022/10/29 02:21:59;;;;;;;109.10;12.00;;;12.60;99.90;;;;;;4979732;28;20417;-79
2022/10/29 02:24:25;;;;;;;187.07;15.75;;;12.60;99.90;;;;;;4984169;28;20041;-83
2022/10/29 02:26:52;;;;;;;148.60;14.13;;;12.60;99.90;;;;;;4986089;28;20046;-84
2022/10/29 02:29:17;;;;;;;134.23;12.43;;;12.60;99.90;;;;;;4986957;28;20046;-83
2022/10/29 02:31:43;;;;;;;154.98;14.32;;;12.60;99.90;;;;;;4987705;28;20125;-83
2022/10/29 02:34:10;;;;;;;159.73;11.95;;;12.50;99.90;;;;;;4986343;28;20109;-82
2022/10/29 02:36:36;;;;;;;101.57;10.55;;;12.70;99.90;;;;;;4983178;28;20447;-84
2022/10/29 02:39:02;;;;;;;273.63;16.80;;;12.70;99.90;;;;;;4983287;28;20050;-74
2022/10/29 02:41:28;;;;;;;199.18;13.32;;;12.60;99.90;;;;;;4986484;28;20042;-83
2022/10/29 02:43:53;;;;;;;187.23;13.68;;;12.50;99.90;;;;;;4982339;28;20050;-85
2022/10/29 02:46:22;;;;;;;146.95;11.10;;;12.50;99.90;;;;;;4986640;28;20501;-77
2022/10/29 02:48:48;;;;;;;150.70;11.40;;;12.50;99.90;;;;;;4979530;28;20046;-78
2022/10/29 02:51:14;;;;;;;175.38;11.88;;;12.60;99.90;;;;;;4983876;28;20075;-82
2022/10/29 02:53:40;;;;;;;114.68;10.05;;;12.60;99.90;;;;;;4988199;28;20042;-83
2022/10/29 02:56:07;;;;;;;127.20;10.60;;;12.60;99.90;;;;;;4984860;28;20093;-83
2022/10/29 02:58:33;;;;;;;219.50;13.50;;;12.60;99.90;;;;;;4994364;28;20069;-74
2022/10/29 03:00:59;;;;;;;128.00;9.75;;;12.50;99.90;;;;;;5008303;28;20038;-74
2022/10/29 03:03:24;;;;;;;164.38;12.23;;;12.60;99.90;;;;;;4991430;28;20046;-76
2022/10/29 03:05:50;;;;;;;146.38;10.52;;;12.50;99.90;;;;;;4976549;28;20126;-82
2022/10/29 03:08:17;;;;;;;121.55;10.13;;;12.50;99.90;;;;;;4986972;28;20042;-79
2022/10/29 03:10:42;;;;;;;124.50;9.55;;;12.50;99.90;;;;;;4982650;28;20114;-81
2022/10/29 03:13:08;;;;;;;75.72;8.50;;;12.40;99.90;;;;;;4987998;28;20133;-80
2022/10/29 03:15:34;;;;;;;136.32;11.07;;;12.50;99.90;;;;;;4986591;28;20496;-83
2022/10/29 03:17:59;;;;;;;125.90;10.80;;;12.40;99.90;;;;;;4986824;28;20097;-81
2022/10/29 03:20:25;;;;;;;106.18;11.40;;;12.50;99.90;;;;;;4969750;28;20042;-83
2022/10/29 03:22:51;;;;;;;109.82;11.45;;;12.50;99.90;;;;;;4985013;28;20390;-83
2022/10/29 03:25:17;;;;;;;79.70;10.15;;;12.40;99.90;;;;;;4992097;28;20485;-84
2022/10/29 03:27:44;;;;;;;120.93;10.48;;;12.50;99.90;;;;;;4986022;28;20046;-83
2022/10/29 03:30:11;;;;;;;138.40;11.98;;;12.50;99.90;;;;;;4984007;28;20438;-83
2022/10/29 03:32:46;;;;;;;151.55;11.40;;;12.50;99.90;;;;;;4968262;28;20050;-83
2022/10/29 03:35:13;;;;;;;112.88;9.93;;;12.30;99.90;;;;;;4986375;28;20042;-75
2022/10/29 03:37:39;;;;;;;176.02;13.27;;;12.40;99.90;;;;;;4988213;28;20501;-83
2022/10/29 03:40:06;;;;;;;66.18;9.95;;;12.40;99.90;;;;;;4986300;28;20069;-81
2022/10/29 03:42:32;;;;;;;80.82;10.30;;;12.50;99.90;;;;;;4985042;28;20137;-81
2022/10/29 03:44:59;;;;;;;158.90;11.23;;;12.40;99.90;;;;;;4986723;28;20434;-77
2022/10/29 03:47:25;;;;;;;200.32;13.95;;;12.40;99.90;;;;;;4970923;28;20125;-82
2022/10/29 03:49:51;;;;;;;190.15;13.50;;;12.40;99.90;;;;;;4970902;28;20042;-80
2022/10/29 03:52:16;;;;;;;166.35;12.05;;;12.40;99.90;;;;;;4968603;28;20046;-82
2022/10/29 03:54:42;;;;;;;129.57;11.77;;;12.50;99.90;;;;;;4966540;28;20078;-78
2022/10/29 03:57:08;;;;;;;107.70;9.23;;;12.40;99.90;;;;;;4987207;28;20111;-83
2022/10/29 03:59:33;;;;;;;169.95;13.07;;;12.50;99.90;;;;;;4985479;28;20058;-84
2022/10/29 04:01:59;;;;;;;131.75;12.70;;;12.50;99.90;;;;;;4981392;28;20050;-80
2022/10/29 04:04:25;;;;;;;142.95;12.48;;;12.60;99.90;;;;;;4986105;28;20033;-78
2022/10/29 04:06:50;;;;;;;114.05;10.50;;;12.50;99.90;;;;;;4982970;28;20046;-82
2022/10/29 04:09:16;;;;;;;107.30;10.93;;;12.40;99.90;;;;;;4985316;28;20452;-80
2022/10/29 04:11:42;;;;;;;102.07;9.73;;;12.50;99.90;;;;;;4985731;28;20077;-76
2022/10/29 04:14:07;;;;;;;88.50;10.00;;;12.50;99.90;;;;;;4982811;28;20449;-79
2022/10/29 04:16:33;;;;;;;98.10;10.63;;;12.50;99.90;;;;;;4985204;28;20054;-77
2022/10/29 04:18:59;;;;;;;152.43;13.18;;;12.50;99.90;;;;;;4985426;28;20105;-80
2022/10/29 04:21:24;;;;;;;197.57;15.57;;;12.50;99.90;;;;;;4973501;28;20047;-76
2022/10/29 04:23:50;;;;;;;72.60;8.85;;;12.50;99.90;;;;;;4984869;28;20543;-84
2022/10/29 04:26:16;;;;;;;151.77;14.93;;;12.50;99.90;;;;;;4988185;28;20611;-82
2022/10/29 04:28:43;;;;;;;99.20;10.40;;;12.50;99.90;;;;;;4988346;28;20062;-82
2022/10/29 04:31:11;;;;;;;103.95;12.88;;;12.50;99.90;;;;;;4993724;28;20085;-82
2022/10/29 04:33:37;;;;;;;65.80;10.32;;;12.50;99.90;;;;;;4992951;28;20113;-78
2022/10/29 04:36:03;;;;;;;75.95;11.38;;;12.60;99.90;;;;;;4991071;28;20690;-82
2022/10/29 04:38:29;;;;;;;79.38;10.98;;;12.50;99.90;;;;;;4970407;28;20065;-83
2022/10/29 04:40:58;;;;;;;100.03;12.55;;;12.50;99.90;;;;;;4982292;28;20541;-81
2022/10/29 04:43:24;;;;;;;106.63;14.60;;;12.50;99.90;;;;;;4991157;28;20405;-82
2022/10/29 04:45:51;;;;;;;91.55;11.63;;;12.50;99.90;;;;;;4990024;28;20049;-81
2022/10/29 04:48:17;;;;;;;72.35;11.70;;;12.60;99.90;;;;;;4983619;28;20034;-80
2022/10/29 04:50:43;;;;;;;79.85;12.32;;;12.50;99.90;;;;;;4983828;28;20062;-81
2022/10/29 04:53:09;;;;;;;224.27;20.80;;;12.60;99.90;;;;;;4985662;28;20046;-73
2022/10/29 04:55:37;;;;;;;119.05;13.98;;;12.50;99.90;;;;;;5012010;28;20046;-73
2022/10/29 04:58:06;;;;;;;134.38;15.93;;;12.50;99.90;;;;;;5013130;28;20038;-76
2022/10/29 05:00:32;;;;;;;72.13;11.88;;;12.50;99.90;;;;;;5013823;28;20038;-73
2022/10/29 05:02:58;;;;;;;75.95;12.77;;;12.40;99.90;;;;;;4994060;28;20057;-79
2022/10/29 05:05:24;;;;;;;123.45;14.02;;;12.20;99.90;;;;;;5003984;28;20146;-77
2022/10/29 05:07:56;;;;;;;128.98;13.77;;;12.30;99.90;;;;;;4973923;28;20133;-82
2022/10/29 05:10:23;;;;;;;146.88;16.02;;;12.30;99.90;;;;;;4988044;28;20118;-77
2022/10/29 05:12:59;;;;;;;121.20;13.52;;;12.20;99.90;;;;;;4987603;28;20228;-81
2022/10/29 05:15:25;;;;;;;186.75;18.45;;;12.20;99.90;;;;;;4985652;28;20501;-81
2022/10/29 05:17:50;;;;;;;134.32;15.00;;;12.30;99.90;;;;;;4987797;28;20086;-82
2022/10/29 05:20:16;;;;;;;147.65;17.17;;;12.30;99.90;;;;;;4986489;28;20062;-80
2022/10/29 05:22:42;;;;;;;112.93;15.40;;;12.30;99.90;;;;;;4970255;28;20073;-79
2022/10/29 05:25:07;;;;;;;146.70;15.13;;;12.40;99.90;;;;;;4982736;28;20109;-82
2022/10/29 05:27:33;;;;;;;93.25;14.43;;;12.40;99.90;;;;;;4987964;28;20045;-79
2022/10/29 05:29:59;;;;;;;67.65;11.05;;;12.30;99.90;;;;;;4989678;28;20050;-81
2022/10/29 05:32:27;;;;;;;74.43;12.52;;;12.50;99.90;;;;;;4987977;28;20440;-80
2022/10/29 05:34:53;;;;;;;62.40;12.15;;;12.30;99.90;;;;;;4988802;28;20125;-78
2022/10/29 05:37:19;;;;;;;95.45;15.23;;;12.50;99.90;;;;;;4987175;28;20105;-80
2022/10/29 05:39:44;;;;;;;100.50;16.05;;;12.40;99.90;;;;;;4971992;28;20133;-78
2022/10/29 05:42:10;;;;;;;113.63;14.88;;;12.50;99.90;;;;;;4988277;28;20038;-78
2022/10/29 05:44:35;;;;;;;76.82;12.40;;;12.40;99.90;;;;;;4991458;28;20043;-79
2022/10/29 05:47:01;;;;;;;64.55;13.15;;;12.40;99.90;;;;;;4992726;28;20116;-78
2022/10/29 05:49:27;;;;;;;81.68;12.88;;;12.40;99.90;;;;;;4993728;28;20094;-79
2022/10/29 05:51:52;;;;;;;74.80;12.07;;;12.40;99.90;;;;;;4987443;28;20050;-78
2022/10/29 05:54:18;;;;;;;93.25;13.20;;;12.50;99.90;;;;;;4988114;28;20559;-81
2022/10/29 05:56:44;;;;;;;73.97;12.45;;;12.60;99.90;;;;;;4989335;28;20058;-78
2022/10/29 05:59:09;;;;;;;130.25;15.52;;;12.60;99.90;;;;;;4981440;28;20393;-81
2022/10/29 06:01:35;;;;;;;109.03;13.65;;;12.50;99.90;;;;;;4968651;28;20077;-80
2022/10/29 06:04:00;;;;;;;179.30;19.35;;;12.50;99.90;;;;;;4987979;28;20077;-81
2022/10/29 06:06:27;;;;;;;114.25;14.40;;;12.60;99.90;;;;;;4985582;28;20504;-78
2022/10/29 06:08:52;;;;;;;92.88;12.25;;;12.60;99.90;;;;;;4985267;28;20454;-80
2022/10/29 06:11:18;;;;;;;100.55;13.10;;;12.60;99.90;;;;;;4983395;28;20137;-80
2022/10/29 06:13:44;;;;;;;153.68;16.17;;;12.60;99.90;;;;;;4987771;28;20058;-81
2022/10/29 06:16:09;;;;;;;166.85;18.70;;;12.50;99.90;;;;;;4988275;28;20489;-78
2022/10/29 06:18:35;;;;;;;137.50;16.38;;;12.70;99.90;;;;;;4988165;28;20445;-79
2022/10/29 06:21:04;;;;;;;191.02;20.17;;;12.60;99.90;;;;;;4986355;28;20073;-76
2022/10/29 06:23:29;;;;;;;143.25;15.93;;;12.70;99.90;;;;;;4986650;28;20470;-79
2022/10/29 06:25:59;;;;;;;137.52;15.60;;;12.70;99.90;;;;;;4986977;28;20081;-80
2022/10/29 06:28:24;;;;;;;148.57;19.20;;;12.60;99.90;;;;;;4984625;28;20034;-81
2022/10/29 06:30:50;;;;;;;152.40;18.10;;;12.60;99.90;;;;;;4971911;28;20093;-80
2022/10/29 06:33:17;;;;;;;147.70;18.00;;;12.70;99.90;;;;;;4977816;28;20049;-78
2022/10/29 06:35:43;;;;;;;133.55;17.60;;;12.60;99.90;;;;;;4983324;28;20057;-78
2022/10/29 06:38:09;;;;;;;122.30;15.30;;;12.60;99.90;;;;;;4968081;28;20046;-81
2022/10/29 06:40:35;;;;;;;109.53;17.27;;;12.60;99.90;;;;;;4988556;28;20096;-81
2022/10/29 06:43:03;;;;;;;189.65;19.67;;;12.80;99.90;;;;;;4970749;28;20053;-84
2022/10/29 06:45:31;;;;;;;141.43;19.35;;;12.70;99.90;;;;;;4987273;28;20068;-82
2022/10/29 06:47:57;;;;;;;148.35;18.52;;;12.80;99.90;;;;;;4984535;28;20104;-80
2022/10/29 06:50:22;;;;;;;126.85;17.60;;;12.90;99.90;;;;;;4979361;28;20442;-81
2022/10/29 06:52:56;;;;;;;160.50;18.58;;;12.80;99.90;;;;;;4983609;28;20136;-80
2022/10/29 06:55:21;;;;;;;168.25;15.88;;;12.80;99.90;;;;;;4989865;28;20050;-80
2022/10/29 06:57:47;;;;;;;134.18;15.57;;;12.90;99.90;;;;;;4972842;28;20481;-80
2022/10/29 07:00:13;;;;;;;151.10;18.27;;;12.90;99.90;;;;;;4987045;28;20047;-82
2022/10/29 07:02:38;;;;;;;112.30;16.23;;;12.90;99.90;;;;;;4988428;28;20038;-79
2022/10/29 07:05:04;;;;;;;223.23;23.00;;;13.00;99.90;;;;;;4984534;28;20520;-76
2022/10/29 07:07:30;;;;;;;125.30;16.65;;;12.90;99.90;;;;;;4997335;28;20046;-80
2022/10/29 07:09:57;;;;;;;123.32;16.45;;;13.00;99.90;;;;;;4980631;28;20046;-79
2022/10/29 07:12:22;;;;;;;127.20;18.92;;;13.00;99.90;;;;;;4981861;28;20046;-76
2022/10/29 07:14:48;;;;;;;87.47;16.75;;;13.00;99.90;;;;;;4985465;28;20053;-79
2022/10/29 07:17:13;;;;;;;94.75;19.88;;;12.90;99.90;;;;;;4988334;28;20044;-85
2022/10/29 07:19:39;;;;;;;95.72;18.80;;;12.90;99.90;;;;;;4981611;28;20405;-83
2022/10/29 07:22:05;;;;;;;82.30;18.40;;;12.90;99.90;;;;;;4983428;28;20046;-82
2022/10/29 07:24:30;;;;;;;122.35;23.58;;;12.90;99.90;;;;;;4986082;28;20093;-81
2022/10/29 07:26:56;;;;;;;58.28;18.27;;;12.90;99.90;;;;;;4985764;28;20054;-80
2022/10/29 07:29:21;;;;;;;77.25;19.65;;;13.00;99.90;;;;;;4984675;28;20409;-77
2022/10/29 07:31:47;;;;;;;60.10;17.98;;;13.00;99.90;;;;;;4985819;28;20157;-80
2022/10/29 07:34:13;;;;;;;96.90;21.02;;;13.00;99.90;;;;;;4979093;28;20038;-81
2022/10/29 07:36:38;;;;;;;69.38;19.67;;;13.00;99.90;;;;;;4987895;28;20493;-78
2022/10/29 07:39:06;;;;;;;90.88;21.45;;;13.00;99.90;;;;;;4987975;28;20069;-81
2022/10/29 07:41:32;;;;;;;76.38;21.02;;;13.00;99.90;;;;;;4987738;28;20100;-80
2022/10/29 07:43:58;;;;;;;72.63;21.40;;;12.90;99.90;;;;;;4989808;28;20050;-78
2022/10/29 07:46:23;;;;;;;77.60;21.90;;;12.90;99.90;;;;;;4988852;28;20042;-80
2022/10/29 07:48:49;;;;;;;68.40;18.92;;;13.00;99.90;;;;;;4987407;28;20046;-76
2022/10/29 07:51:14;;;;;;;64.10;23.40;;;13.00;99.90;;;;;;4984396;28;20501;-79
2022/10/29 07:53:40;;;;;;;63.38;22.75;;;13.10;99.90;;;;;;4986436;28;20113;-77
2022/10/29 07:56:06;;;;;;;81.68;22.48;;;13.00;99.90;;;;;;4984844;28;20116;-78
2022/10/29 07:58:31;;;;;;;54.38;23.13;;;13.00;99.90;;;;;;4980962;28;20482;-77
2022/10/29 08:00:58;;;;;;;51.75;22.23;;;12.80;99.90;;;;;;4964828;28;20394;-79
2022/10/29 08:03:24;;;;;;;55.30;22.50;;;12.90;99.90;;;;;;4972666;28;20149;-77
2022/10/29 08:05:50;;;;;;;48.45;23.25;;;12.90;99.90;;;;;;4982871;28;20049;-81
2022/10/29 08:08:16;;;;;;;45.92;22.75;;;12.80;99.90;;;;;;4987696;28;20034;-79
2022/10/29 08:10:43;;;;;;;53.45;26.50;;;12.80;99.90;;;;;;4980703;28;20540;-78
2022/10/29 08:13:08;;;;;;;45.40;21.45;;;12.90;99.90;;;;;;4965226;28;20078;-78
2022/10/29 08:15:34;;;;;;;48.75;23.73;;;13.00;99.90;;;;;;4982977;28;20094;-79
2022/10/29 08:18:01;;;;;;;50.92;24.70;;;13.00;99.90;;;;;;4973171;28;20046;-79
2022/10/29 08:20:28;;;;;;;62.53;25.38;;;13.10;99.90;;;;;;4966972;28;20405;-79
2022/10/29 08:22:53;;;;;;;37.97;21.73;;;13.10;99.90;;;;;;4982767;28;20567;-79
2022/10/29 08:25:19;;;;;;;50.72;22.63;;;13.00;99.90;;;;;;4986123;28;20042;-79
2022/10/29 08:27:56;;;;;;;36.78;23.05;;;13.10;99.90;;;;;;4982706;28;20108;-79
2022/10/29 08:30:21;;;;;;;43.97;22.27;;;13.20;99.90;;;;;;4968078;28;20034;-78
2022/10/29 08:32:47;;;;;;;42.35;24.30;;;13.30;99.90;;;;;;4987432;28;20042;-79
2022/10/29 08:35:14;;;;;;;33.45;19.35;;;13.30;99.90;;;;;;4989007;28;20045;-80
2022/10/29 08:37:43;;;;;;;38.00;21.02;;;13.30;99.90;;;;;;4985022;28;20046;-80
2022/10/29 08:40:24;;;;;;;40.13;19.60;;;13.40;99.90;;;;;;4979957;28;20058;-78
2022/10/29 08:43:29;;;;;;;35.75;19.35;;;13.40;99.90;;;;;;4971215;28;20057;-78
2022/10/29 08:45:56;;;;;;;30.02;19.92;;;13.40;99.90;;;;;;4968468;28;20054;-79
2022/10/29 08:48:33;;;;;;;32.95;19.58;;;13.40;99.90;;;;;;4986229;28;20031;-78
2022/10/29 08:51:11;;;;;;;34.78;19.45;;;13.40;99.90;;;;;;4984428;28;20108;-79
2022/10/29 08:53:48;;;;;;;35.15;18.50;;;13.50;99.90;;;;;;4951323;28;20125;-79
2022/10/29 08:56:40;;;;;;;36.33;18.40;;;13.50;99.90;;;;;;4968244;28;20062;-79
2022/10/29 08:59:13;;;;;;;39.70;21.25;;;13.60;99.90;;;;;;4984062;28;20042;-80
2022/10/29 09:01:39;;;;;;;26.40;17.02;;;13.70;99.90;;;;;;4982638;28;20063;-78
2022/10/29 09:04:24;;;;;;;33.63;19.02;;;13.70;99.90;;;;;;4980069;28;20370;-78
2022/10/29 09:06:59;;;;;;;39.80;21.13;;;13.80;99.90;;;;;;4983871;28;20141;-76
2022/10/29 09:09:38;;;;;;;33.85;19.50;;;13.80;99.90;;;;;;4961730;28;20042;-79
2022/10/29 09:12:36;;;;;;;35.70;18.83;;;13.90;99.90;;;;;;4975444;28;20062;-78
2022/10/29 09:15:29;;;;;;;37.45;18.67;;;13.90;99.90;;;;;;4988977;28;20120;-78
2022/10/29 09:18:16;;;;;;;36.15;18.63;;;14.00;99.90;;;;;;5001644;28;20129;-79
2022/10/29 09:21:04;;;;;;;50.28;19.25;;;14.10;99.90;;;;;;4988198;28;20104;-76
2022/10/29 09:24:03;;;;;;;28.83;17.50;;;14.10;99.90;;;;;;4987469;28;20045;-78
2022/10/29 09:26:37;;;;;;;44.22;19.70;;;14.20;99.90;;;;;;4989317;28;20081;-80
2022/10/29 09:29:43;;;;;;;33.58;18.10;;;14.20;99.90;;;;;;4988243;28;20742;-80
2022/10/29 09:32:11;;;;;;;30.27;17.98;;;14.20;99.90;;;;;;4980794;28;20150;-77
2022/10/29 09:34:54;;;;;;;42.80;21.50;;;14.20;99.90;;;;;;4996681;28;20559;-78
2022/10/29 09:37:32;;;;;;;34.95;21.60;;;14.20;99.90;;;;;;4970320;28;20125;-78
2022/10/29 09:39:59;;;;;;;33.60;21.65;;;14.30;99.90;;;;;;4982923;28;20049;-77
2022/10/29 09:42:38;;;;;;;43.55;21.95;;;14.40;99.90;;;;;;4987535;28;20310;-75
2022/10/29 09:45:09;;;;;;;38.00;18.63;;;14.50;99.90;;;;;;4986632;28;20065;-78
2022/10/29 09:47:43;;;;;;;48.38;20.23;;;14.50;99.90;;;;;;4990508;28;20050;-77
2022/10/29 09:50:34;;;;;;;37.88;19.77;;;14.60;99.90;;;;;;4986064;28;20094;-78
2022/10/29 09:53:00;;;;;;;37.13;18.15;;;14.80;99.90;;;;;;4971102;28;20054;-78
2022/10/29 09:55:35;;;;;;;46.38;20.98;;;14.80;99.90;;;;;;4982498;28;20046;-76
2022/10/29 09:58:01;;;;;;;38.08;21.83;;;14.90;99.90;;;;;;4986006;28;20042;-78
2022/10/29 10:00:29;;;;;;;28.08;16.70;;;14.90;99.90;;;;;;4986077;28;20061;-78
2022/10/29 10:03:09;;;;;;;41.55;19.30;;;14.90;99.90;;;;;;4988814;28;20045;-77
2022/10/29 10:05:35;;;;;;;35.65;20.45;;;15.10;99.90;;;;;;4971094;28;20038;-78
2022/10/29 10:08:12;;;;;;;31.33;17.25;;;15.10;99.90;;;;;;4989797;28;20530;-77
2022/10/29 10:10:59;;;;;;;30.55;18.55;;;15.20;99.90;;;;;;4982884;28;20078;-78
2022/10/29 10:13:28;;;;;;;27.35;17.23;;;15.20;99.90;;;;;;4986734;28;20535;-77
2022/10/29 10:16:00;;;;;;;32.70;16.27;;;15.20;99.90;;;;;;4988079;28;20034;-77
2022/10/29 10:18:30;;;;;;;36.20;18.48;;;15.30;99.90;;;;;;4988263;28;20281;-78
2022/10/29 10:21:27;;;;;;;30.33;17.65;;;15.30;99.90;;;;;;4969938;28;20049;-77
2022/10/29 10:23:56;;;;;;;31.67;15.38;;;15.50;99.90;;;;;;4975970;28;20050;-79
2022/10/29 10:26:34;;;;;;;31.52;18.35;;;15.60;99.90;;;;;;4988316;28;20050;-80
2022/10/29 10:29:11;;;;;;;24.35;15.35;;;15.70;99.90;;;;;;4973058;28;20724;-80
2022/10/29 10:31:42;;;;;;;29.73;15.77;;;15.80;99.90;;;;;;4985391;28;20042;-79
2022/10/29 10:34:12;;;;;;;27.15;16.00;;;15.80;99.90;;;;;;4969739;28;20415;-79
2022/10/29 10:36:41;;;;;;;28.77;15.18;;;16.00;99.90;;;;;;4987213;28;20048;-78
2022/10/29 10:39:27;;;;;;;28.63;15.45;;;16.00;99.90;;;;;;4988074;28;20050;-78
2022/10/29 10:41:54;;;;;;;30.35;12.75;;;16.10;99.90;;;;;;4988120;28;20122;-78
2022/10/29 10:44:22;;;;;;;27.98;13.30;;;16.20;99.90;;;;;;4961632;28;20038;-79
2022/10/29 10:46:50;;;;;;;20.33;13.10;;;16.30;99.90;;;;;;4982248;28;20374;-78
2022/10/29 10:49:22;;;;;;;19.77;12.75;;;16.40;99.90;;;;;;4987544;28;20050;-79
2022/10/29 10:51:51;;;;;;;21.20;11.90;;;16.30;99.90;;;;;;4987316;28;20038;-79
2022/10/29 10:54:31;;;;;;;26.17;11.55;;;16.30;99.90;;;;;;4988737;28;20088;-79
2022/10/29 10:57:01;;;;;;;21.83;10.98;;;16.40;99.90;;;;;;4970054;28;20058;-79
2022/10/29 10:59:42;;;;;;;22.48;12.45;;;16.50;99.90;;;;;;4972196;28;20039;-79
2022/10/29 11:02:19;;;;;;;20.73;10.88;;;16.60;99.90;;;;;;4977150;28;20498;-83
2022/10/29 11:04:48;;;;;;;20.23;10.43;;;16.50;99.90;;;;;;4984126;28;20105;-84
2022/10/29 11:07:16;;;;;;;28.95;11.85;;;16.60;99.90;;;;;;4986247;28;20042;-82
2022/10/29 11:09:49;;;;;;;18.17;11.07;;;16.70;99.90;;;;;;4985741;28;20434;-79
2022/10/29 11:12:32;;;;;;;25.20;11.52;;;16.80;99.90;;;;;;4975923;28;20125;-77
2022/10/29 11:15:06;;;;;;;24.17;10.52;;;16.90;99.90;;;;;;4986172;28;20045;-79
2022/10/29 11:17:45;;;;;;;20.38;10.80;;;17.00;99.90;;;;;;4999812;28;20096;-78
2022/10/29 11:20:31;;;;;;;20.85;10.52;;;17.10;99.90;;;;;;4973226;28;20517;-80
2022/10/29 11:23:15;;;;;;;19.45;11.40;;;17.30;99.90;;;;;;4988171;28;20050;-82
2022/10/29 11:25:53;;;;;;;25.88;12.55;;;17.40;99.90;;;;;;4989942;28;20042;-83
2022/10/29 11:28:22;;;;;;;22.52;10.88;;;17.40;99.90;;;;;;4984182;28;20042;-82
2022/10/29 11:30:55;;;;;;;16.30;10.68;;;17.40;99.90;;;;;;4985132;28;20122;-82
2022/10/29 11:33:49;;;;;;;20.85;10.73;;;17.40;99.90;;;;;;4975927;28;20452;-81
2022/10/29 11:36:23;;;;;;;23.33;13.30;;;17.40;99.90;;;;;;4969052;28;20130;-83
2022/10/29 11:38:58;;;;;;;22.45;11.95;;;17.30;99.90;;;;;;4986426;28;20057;-83
2022/10/29 11:41:42;;;;;;;25.33;11.40;;;17.30;99.90;;;;;;4987955;28;20076;-82
2022/10/29 11:44:12;;;;;;;32.42;13.50;;;17.40;99.90;;;;;;4988677;28;20053;-82
2022/10/29 11:46:52;;;;;;;20.88;11.18;;;17.40;99.90;;;;;;4989146;28;20050;-78
2022/10/29 11:49:23;;;;;;;27.73;12.02;;;17.50;99.90;;;;;;4984022;28;20092;-77
2022/10/29 11:52:02;;;;;;;24.65;10.68;;;17.50;99.90;;;;;;4986411;28;20046;-82
2022/10/29 11:55:07;;;;;;;22.58;12.00;;;17.50;99.90;;;;;;4986643;28;20043;-81
2022/10/29 11:57:38;;;;;;;21.35;11.80;;;17.50;99.90;;;;;;4981459;28;20125;-79
2022/10/29 12:00:10;;;;;;;25.73;14.05;;;17.40;99.90;;;;;;4967345;28;20046;-84
2022/10/29 12:02:53;;;;;;;23.88;12.02;;;17.40;99.90;;;;;;4966831;28;20049;-84
2022/10/29 12:05:58;;;;;;;25.33;13.57;;;17.50;99.90;;;;;;4966523;28;20126;-79
2022/10/29 12:08:58;;;;;;;20.55;12.23;;;17.60;99.90;;;;;;4934710;28;20050;-81
2022/10/29 12:11:47;;;;;;;28.50;13.85;;;17.70;99.90;;;;;;4986376;28;20085;-84
2022/10/29 12:14:32;;;;;;;24.10;12.23;;;17.80;99.90;;;;;;4986273;28;20042;-81
2022/10/29 12:17:12;;;;;;;22.08;12.07;;;17.80;99.90;;;;;;4985303;28;20118;-78
2022/10/29 12:19:45;;;;;;;26.23;11.93;;;17.80;99.90;;;;;;4983705;28;20047;-81
2022/10/29 12:22:46;;;;;;;19.92;12.18;;;17.80;99.90;;;;;;4968709;28;20085;-83
2022/10/29 12:25:33;;;;;;;24.60;13.40;;;18.00;99.90;;;;;;4974817;28;20051;-75
2022/10/29 12:28:45;;;;;;;23.83;11.25;;;18.10;99.90;;;;;;4978862;28;20398;-82
2022/10/29 12:31:41;;;;;;;17.50;12.35;;;18.40;99.90;;;;;;4968786;28;20054;-83
2022/10/29 12:34:19;;;;;;;30.08;12.93;;;18.40;99.90;;;;;;4951973;28;20051;-83
2022/10/29 12:36:50;;;;;;;24.30;11.82;;;18.40;99.90;;;;;;4968496;28;20050;-79
2022/10/29 12:39:45;;;;;;;26.35;12.30;;;18.50;99.90;;;;;;4973086;28;20438;-83
2022/10/29 12:42:24;;;;;;;22.52;10.57;;;18.50;99.90;;;;;;4988742;28;20047;-83
2022/10/29 12:45:02;;;;;;;23.15;11.82;;;18.50;99.90;;;;;;4989298;28;20057;-79
2022/10/29 12:47:53;;;;;;;22.67;12.55;;;18.40;99.90;;;;;;4991222;28;20426;-83